sensor_id;sensor_type;location;lat;lon;timestamp;P1;durP1;ratioP1;P2;durP2;ratioP2
53391;SDS011;41667;51.922;8.850;2023-06-14T00:02:02;2.17;;;1.60;;
53391;SDS011;41667;51.922;8.850;2023-06-14T00:04:27;3.58;;;2.00;;
53391;SDS011;41667;51.922;8.850;2023-06-14T00:06:53;5.75;;;2.17;;
53391;SDS011;41667;51.922;8.850;2023-06-14T00:09:21;2.00;;;1.63;;
53391;SDS011;41667;51.922;8.850;2023-06-14T00:11:46;3.38;;;1.73;;
53391;SDS011;41667;51.922;8.850;2023-06-14T00:14:11;2.10;;;1.90;;
53391;SDS011;41667;51.922;8.850;2023-06-14T00:16:36;1.63;;;1.53;;
53391;SDS011;41667;51.922;8.850;2023-06-14T00:19:03;2.30;;;2.10;;
53391;SDS011;41667;51.922;8.850;2023-06-14T00:21:29;5.03;;;1.83;;
53391;SDS011;41667;51.922;8.850;2023-06-14T00:23:54;3.15;;;1.80;;
53391;SDS011;41667;51.922;8.850;2023-06-14T00:26:20;2.47;;;1.85;;
53391;SDS011;41667;51.922;8.850;2023-06-14T00:28:45;2.63;;;1.67;;
53391;SDS011;41667;51.922;8.850;2023-06-14T00:31:10;1.77;;;1.67;;
53391;SDS011;41667;51.922;8.850;2023-06-14T00:33:35;2.60;;;2.15;;
53391;SDS011;41667;51.922;8.850;2023-06-14T00:36:00;2.05;;;1.73;;
53391;SDS011;41667;51.922;8.850;2023-06-14T00:38:25;3.20;;;1.80;;
53391;SDS011;41667;51.922;8.850;2023-06-14T00:40:51;5.85;;;2.08;;
53391;SDS011;41667;51.922;8.850;2023-06-14T00:43:16;2.10;;;1.90;;
53391;SDS011;41667;51.922;8.850;2023-06-14T00:45:41;2.20;;;1.80;;
53391;SDS011;41667;51.922;8.850;2023-06-14T00:48:06;4.07;;;1.88;;
53391;SDS011;41667;51.922;8.850;2023-06-14T00:50:32;5.47;;;2.10;;
53391;SDS011;41667;51.922;8.850;2023-06-14T00:52:58;2.50;;;2.30;;
53391;SDS011;41667;51.922;8.850;2023-06-14T00:55:23;4.57;;;2.20;;
53391;SDS011;41667;51.922;8.850;2023-06-14T00:57:48;2.20;;;2.00;;
53391;SDS011;41667;51.922;8.850;2023-06-14T01:00:14;2.80;;;2.00;;
53391;SDS011;41667;51.922;8.850;2023-06-14T01:02:39;2.95;;;1.90;;
53391;SDS011;41667;51.922;8.850;2023-06-14T01:05:05;3.90;;;2.17;;
53391;SDS011;41667;51.922;8.850;2023-06-14T01:07:43;1.70;;;1.60;;
53391;SDS011;41667;51.922;8.850;2023-06-14T01:10:26;6.38;;;2.13;;
53391;SDS011;41667;51.922;8.850;2023-06-14T01:13:03;2.33;;;2.00;;
53391;SDS011;41667;51.922;8.850;2023-06-14T01:15:30;2.30;;;1.95;;
53391;SDS011;41667;51.922;8.850;2023-06-14T01:17:56;1.95;;;1.85;;
53391;SDS011;41667;51.922;8.850;2023-06-14T01:20:28;1.90;;;1.70;;
53391;SDS011;41667;51.922;8.850;2023-06-14T01:22:53;2.15;;;1.95;;
53391;SDS011;41667;51.922;8.850;2023-06-14T01:25:19;3.17;;;1.63;;
53391;SDS011;41667;51.922;8.850;2023-06-14T01:27:48;5.63;;;1.98;;
53391;SDS011;41667;51.922;8.850;2023-06-14T01:30:14;2.30;;;1.77;;
53391;SDS011;41667;51.922;8.850;2023-06-14T01:32:40;3.03;;;1.90;;
53391;SDS011;41667;51.922;8.850;2023-06-14T01:35:05;2.35;;;2.08;;
53391;SDS011;41667;51.922;8.850;2023-06-14T01:37:30;1.90;;;1.70;;
53391;SDS011;41667;51.922;8.850;2023-06-14T01:39:56;1.90;;;1.80;;
53391;SDS011;41667;51.922;8.850;2023-06-14T01:42:21;2.40;;;2.10;;
53391;SDS011;41667;51.922;8.850;2023-06-14T01:44:47;2.80;;;2.42;;
53391;SDS011;41667;51.922;8.850;2023-06-14T01:47:13;3.65;;;1.98;;
53391;SDS011;41667;51.922;8.850;2023-06-14T01:49:39;1.95;;;1.70;;
53391;SDS011;41667;51.922;8.850;2023-06-14T01:52:05;2.30;;;2.00;;
53391;SDS011;41667;51.922;8.850;2023-06-14T01:54:31;3.75;;;1.92;;
53391;SDS011;41667;51.922;8.850;2023-06-14T01:56:56;1.80;;;1.70;;
53391;SDS011;41667;51.922;8.850;2023-06-14T01:59:21;2.35;;;2.15;;
53391;SDS011;41667;51.922;8.850;2023-06-14T02:01:46;2.47;;;2.27;;
53391;SDS011;41667;51.922;8.850;2023-06-14T02:04:12;5.47;;;2.22;;
53391;SDS011;41667;51.922;8.850;2023-06-14T02:06:37;2.30;;;2.10;;
53391;SDS011;41667;51.922;8.850;2023-06-14T02:09:02;3.53;;;1.75;;
53391;SDS011;41667;51.922;8.850;2023-06-14T02:11:28;1.95;;;1.85;;
53391;SDS011;41667;51.922;8.850;2023-06-14T02:13:53;3.30;;;2.00;;
53391;SDS011;41667;51.922;8.850;2023-06-14T02:16:18;2.60;;;2.00;;
53391;SDS011;41667;51.922;8.850;2023-06-14T02:18:43;1.92;;;1.55;;
53391;SDS011;41667;51.922;8.850;2023-06-14T02:21:08;2.60;;;1.97;;
53391;SDS011;41667;51.922;8.850;2023-06-14T02:23:33;3.50;;;2.28;;
53391;SDS011;41667;51.922;8.850;2023-06-14T02:25:59;2.08;;;1.85;;
53391;SDS011;41667;51.922;8.850;2023-06-14T02:28:24;1.85;;;1.75;;
53391;SDS011;41667;51.922;8.850;2023-06-14T02:30:49;3.73;;;1.87;;
53391;SDS011;41667;51.922;8.850;2023-06-14T02:33:14;9.40;;;2.47;;
53391;SDS011;41667;51.922;8.850;2023-06-14T02:35:40;3.08;;;1.90;;
53391;SDS011;41667;51.922;8.850;2023-06-14T02:38:05;2.33;;;2.13;;
53391;SDS011;41667;51.922;8.850;2023-06-14T02:40:30;2.33;;;1.88;;
53391;SDS011;41667;51.922;8.850;2023-06-14T02:42:55;5.20;;;1.90;;
53391;SDS011;41667;51.922;8.850;2023-06-14T02:45:20;2.17;;;1.98;;
53391;SDS011;41667;51.922;8.850;2023-06-14T02:47:45;3.03;;;2.10;;
53391;SDS011;41667;51.922;8.850;2023-06-14T02:50:11;2.67;;;1.90;;
53391;SDS011;41667;51.922;8.850;2023-06-14T02:52:36;2.15;;;1.73;;
53391;SDS011;41667;51.922;8.850;2023-06-14T02:55:01;2.45;;;1.98;;
53391;SDS011;41667;51.922;8.850;2023-06-14T02:57:27;2.92;;;2.20;;
53391;SDS011;41667;51.922;8.850;2023-06-14T02:59:52;2.83;;;2.53;;
53391;SDS011;41667;51.922;8.850;2023-06-14T03:02:17;3.63;;;2.35;;
53391;SDS011;41667;51.922;8.850;2023-06-14T03:04:42;5.32;;;2.08;;
53391;SDS011;41667;51.922;8.850;2023-06-14T03:07:09;1.90;;;1.77;;
53391;SDS011;41667;51.922;8.850;2023-06-14T03:09:35;2.15;;;1.77;;
53391;SDS011;41667;51.922;8.850;2023-06-14T03:12:02;4.10;;;2.00;;
53391;SDS011;41667;51.922;8.850;2023-06-14T03:14:27;6.80;;;2.30;;
53391;SDS011;41667;51.922;8.850;2023-06-14T03:16:54;2.25;;;1.75;;
53391;SDS011;41667;51.922;8.850;2023-06-14T03:19:21;2.30;;;2.10;;
53391;SDS011;41667;51.922;8.850;2023-06-14T03:21:46;2.20;;;1.95;;
53391;SDS011;41667;51.922;8.850;2023-06-14T03:24:12;2.03;;;1.88;;
53391;SDS011;41667;51.922;8.850;2023-06-14T03:26:37;3.08;;;2.40;;
53391;SDS011;41667;51.922;8.850;2023-06-14T03:29:02;3.90;;;2.28;;
53391;SDS011;41667;51.922;8.850;2023-06-14T03:31:28;2.58;;;2.25;;
53391;SDS011;41667;51.922;8.850;2023-06-14T03:33:57;3.95;;;2.60;;
53391;SDS011;41667;51.922;8.850;2023-06-14T03:36:22;5.15;;;2.13;;
53391;SDS011;41667;51.922;8.850;2023-06-14T03:38:47;2.33;;;2.13;;
53391;SDS011;41667;51.922;8.850;2023-06-14T03:41:12;2.60;;;2.25;;
53391;SDS011;41667;51.922;8.850;2023-06-14T03:43:37;2.17;;;1.92;;
53391;SDS011;41667;51.922;8.850;2023-06-14T03:46:03;2.17;;;1.98;;
53391;SDS011;41667;51.922;8.850;2023-06-14T03:48:28;5.75;;;2.10;;
53391;SDS011;41667;51.922;8.850;2023-06-14T03:50:53;2.35;;;2.00;;
53391;SDS011;41667;51.922;8.850;2023-06-14T03:53:19;3.28;;;2.17;;
53391;SDS011;41667;51.922;8.850;2023-06-14T03:55:48;4.07;;;2.05;;
53391;SDS011;41667;51.922;8.850;2023-06-14T03:58:13;2.67;;;2.08;;
53391;SDS011;41667;51.922;8.850;2023-06-14T04:00:39;2.03;;;1.60;;
53391;SDS011;41667;51.922;8.850;2023-06-14T04:03:05;2.88;;;2.00;;
53391;SDS011;41667;51.922;8.850;2023-06-14T04:05:30;2.75;;;2.05;;
53391;SDS011;41667;51.922;8.850;2023-06-14T04:07:56;3.55;;;1.83;;
53391;SDS011;41667;51.922;8.850;2023-06-14T04:10:22;2.53;;;2.30;;
53391;SDS011;41667;51.922;8.850;2023-06-14T04:12:47;2.60;;;2.40;;
53391;SDS011;41667;51.922;8.850;2023-06-14T04:15:12;3.83;;;2.22;;
53391;SDS011;41667;51.922;8.850;2023-06-14T04:17:37;2.42;;;2.20;;
53391;SDS011;41667;51.922;8.850;2023-06-14T04:20:03;4.10;;;2.25;;
53391;SDS011;41667;51.922;8.850;2023-06-14T04:22:30;3.78;;;1.95;;
53391;SDS011;41667;51.922;8.850;2023-06-14T04:24:56;3.60;;;2.08;;
53391;SDS011;41667;51.922;8.850;2023-06-14T04:27:22;4.90;;;2.45;;
53391;SDS011;41667;51.922;8.850;2023-06-14T04:29:50;2.42;;;2.22;;
53391;SDS011;41667;51.922;8.850;2023-06-14T04:32:20;2.20;;;2.08;;
53391;SDS011;41667;51.922;8.850;2023-06-14T04:34:46;3.42;;;2.45;;
53391;SDS011;41667;51.922;8.850;2023-06-14T04:37:12;2.35;;;1.95;;
53391;SDS011;41667;51.922;8.850;2023-06-14T04:39:38;2.88;;;1.98;;
53391;SDS011;41667;51.922;8.850;2023-06-14T04:42:03;2.20;;;2.00;;
53391;SDS011;41667;51.922;8.850;2023-06-14T04:44:29;2.03;;;1.90;;
53391;SDS011;41667;51.922;8.850;2023-06-14T04:46:57;2.10;;;1.90;;
53391;SDS011;41667;51.922;8.850;2023-06-14T04:49:23;4.28;;;2.15;;
53391;SDS011;41667;51.922;8.850;2023-06-14T04:51:49;4.30;;;1.88;;
53391;SDS011;41667;51.922;8.850;2023-06-14T04:54:22;2.35;;;2.15;;
53391;SDS011;41667;51.922;8.850;2023-06-14T04:56:47;3.72;;;1.75;;
53391;SDS011;41667;51.922;8.850;2023-06-14T04:59:12;3.38;;;2.05;;
53391;SDS011;41667;51.922;8.850;2023-06-14T05:01:37;1.80;;;1.70;;
53391;SDS011;41667;51.922;8.850;2023-06-14T05:04:03;1.70;;;1.60;;
53391;SDS011;41667;51.922;8.850;2023-06-14T05:06:28;5.13;;;2.42;;
53391;SDS011;41667;51.922;8.850;2023-06-14T05:08:53;3.70;;;1.73;;
53391;SDS011;41667;51.922;8.850;2023-06-14T05:11:19;1.60;;;1.50;;
53391;SDS011;41667;51.922;8.850;2023-06-14T05:13:44;3.05;;;2.00;;
53391;SDS011;41667;51.922;8.850;2023-06-14T05:16:09;1.77;;;1.65;;
53391;SDS011;41667;51.922;8.850;2023-06-14T05:18:36;1.95;;;1.80;;
53391;SDS011;41667;51.922;8.850;2023-06-14T05:21:02;1.75;;;1.50;;
53391;SDS011;41667;51.922;8.850;2023-06-14T05:23:28;3.03;;;1.73;;
53391;SDS011;41667;51.922;8.850;2023-06-14T05:25:53;1.90;;;1.60;;
53391;SDS011;41667;51.922;8.850;2023-06-14T05:28:19;2.40;;;1.60;;
53391;SDS011;41667;51.922;8.850;2023-06-14T05:30:45;1.95;;;1.85;;
53391;SDS011;41667;51.922;8.850;2023-06-14T05:33:10;1.58;;;1.27;;
53391;SDS011;41667;51.922;8.850;2023-06-14T05:35:35;5.77;;;2.10;;
53391;SDS011;41667;51.922;8.850;2023-06-14T05:38:01;2.35;;;1.58;;
53391;SDS011;41667;51.922;8.850;2023-06-14T05:40:26;2.72;;;1.50;;
53391;SDS011;41667;51.922;8.850;2023-06-14T05:42:51;1.95;;;1.48;;
53391;SDS011;41667;51.922;8.850;2023-06-14T05:45:17;1.80;;;1.70;;
53391;SDS011;41667;51.922;8.850;2023-06-14T05:47:42;1.83;;;1.40;;
53391;SDS011;41667;51.922;8.850;2023-06-14T05:50:07;1.73;;;1.58;;
53391;SDS011;41667;51.922;8.850;2023-06-14T05:52:33;1.40;;;1.15;;
53391;SDS011;41667;51.922;8.850;2023-06-14T05:54:58;2.00;;;1.30;;
53391;SDS011;41667;51.922;8.850;2023-06-14T05:57:23;2.78;;;0.98;;
53391;SDS011;41667;51.922;8.850;2023-06-14T05:59:49;1.60;;;1.50;;
53391;SDS011;41667;51.922;8.850;2023-06-14T06:02:15;1.42;;;1.33;;
53391;SDS011;41667;51.922;8.850;2023-06-14T06:04:40;1.20;;;0.88;;
53391;SDS011;41667;51.922;8.850;2023-06-14T06:07:05;1.10;;;1.10;;
53391;SDS011;41667;51.922;8.850;2023-06-14T06:09:30;1.53;;;1.23;;
53391;SDS011;41667;51.922;8.850;2023-06-14T06:11:56;1.38;;;1.27;;
53391;SDS011;41667;51.922;8.850;2023-06-14T06:14:21;1.95;;;1.48;;
53391;SDS011;41667;51.922;8.850;2023-06-14T06:16:46;1.47;;;1.10;;
53391;SDS011;41667;51.922;8.850;2023-06-14T06:19:11;1.05;;;1.00;;
53391;SDS011;41667;51.922;8.850;2023-06-14T06:21:36;4.63;;;1.23;;
53391;SDS011;41667;51.922;8.850;2023-06-14T06:24:01;2.72;;;1.02;;
53391;SDS011;41667;51.922;8.850;2023-06-14T06:26:28;1.10;;;1.00;;
53391;SDS011;41667;51.922;8.850;2023-06-14T06:28:53;4.83;;;1.60;;
53391;SDS011;41667;51.922;8.850;2023-06-14T06:31:18;3.22;;;1.50;;
53391;SDS011;41667;51.922;8.850;2023-06-14T06:33:43;1.42;;;1.27;;
53391;SDS011;41667;51.922;8.850;2023-06-14T06:36:09;1.60;;;1.20;;
53391;SDS011;41667;51.922;8.850;2023-06-14T06:38:34;1.25;;;1.13;;
53391;SDS011;41667;51.922;8.850;2023-06-14T06:41:00;6.85;;;2.15;;
53391;SDS011;41667;51.922;8.850;2023-06-14T06:43:25;1.83;;;1.17;;
53391;SDS011;41667;51.922;8.850;2023-06-14T06:45:50;1.40;;;1.30;;
53391;SDS011;41667;51.922;8.850;2023-06-14T06:48:15;3.97;;;1.00;;
53391;SDS011;41667;51.922;8.850;2023-06-14T06:50:40;1.47;;;1.37;;
53391;SDS011;41667;51.922;8.850;2023-06-14T06:53:06;1.90;;;1.55;;
53391;SDS011;41667;51.922;8.850;2023-06-14T06:55:32;1.20;;;1.20;;
53391;SDS011;41667;51.922;8.850;2023-06-14T06:57:57;3.38;;;1.35;;
53391;SDS011;41667;51.922;8.850;2023-06-14T07:00:22;0.93;;;0.87;;
53391;SDS011;41667;51.922;8.850;2023-06-14T07:02:48;1.02;;;0.90;;
53391;SDS011;41667;51.922;8.850;2023-06-14T07:05:13;1.00;;;0.85;;
53391;SDS011;41667;51.922;8.850;2023-06-14T07:07:38;1.20;;;1.10;;
53391;SDS011;41667;51.922;8.850;2023-06-14T07:10:04;3.03;;;1.30;;
53391;SDS011;41667;51.922;8.850;2023-06-14T07:12:29;1.58;;;0.93;;
53391;SDS011;41667;51.922;8.850;2023-06-14T07:14:55;1.00;;;1.00;;
53391;SDS011;41667;51.922;8.850;2023-06-14T07:17:20;1.63;;;0.95;;
53391;SDS011;41667;51.922;8.850;2023-06-14T07:19:46;1.40;;;1.30;;
53391;SDS011;41667;51.922;8.850;2023-06-14T07:22:11;2.25;;;1.50;;
53391;SDS011;41667;51.922;8.850;2023-06-14T07:24:36;3.95;;;1.15;;
53391;SDS011;41667;51.922;8.850;2023-06-14T07:27:01;1.17;;;1.10;;
53391;SDS011;41667;51.922;8.850;2023-06-14T07:29:28;1.65;;;1.10;;
53391;SDS011;41667;51.922;8.850;2023-06-14T07:31:53;0.90;;;0.90;;
53391;SDS011;41667;51.922;8.850;2023-06-14T07:34:18;1.30;;;1.20;;
53391;SDS011;41667;51.922;8.850;2023-06-14T07:36:43;2.30;;;1.20;;
53391;SDS011;41667;51.922;8.850;2023-06-14T07:39:09;2.55;;;1.30;;
53391;SDS011;41667;51.922;8.850;2023-06-14T07:41:35;1.58;;;1.00;;
53391;SDS011;41667;51.922;8.850;2023-06-14T07:44:00;1.10;;;1.00;;
53391;SDS011;41667;51.922;8.850;2023-06-14T07:46:25;1.38;;;1.27;;
53391;SDS011;41667;51.922;8.850;2023-06-14T07:48:50;2.22;;;1.10;;
53391;SDS011;41667;51.922;8.850;2023-06-14T07:51:16;1.30;;;1.20;;
53391;SDS011;41667;51.922;8.850;2023-06-14T07:53:41;1.10;;;1.00;;
53391;SDS011;41667;51.922;8.850;2023-06-14T07:56:07;3.45;;;1.38;;
53391;SDS011;41667;51.922;8.850;2023-06-14T07:58:32;1.27;;;1.17;;
53391;SDS011;41667;51.922;8.850;2023-06-14T08:00:57;1.33;;;1.23;;
53391;SDS011;41667;51.922;8.850;2023-06-14T08:03:22;1.00;;;1.00;;
53391;SDS011;41667;51.922;8.850;2023-06-14T08:05:47;1.73;;;1.27;;
53391;SDS011;41667;51.922;8.850;2023-06-14T08:08:13;2.35;;;1.00;;
53391;SDS011;41667;51.922;8.850;2023-06-14T08:10:38;1.13;;;1.10;;
53391;SDS011;41667;51.922;8.850;2023-06-14T08:13:03;1.35;;;1.23;;
53391;SDS011;41667;51.922;8.850;2023-06-14T08:15:28;1.23;;;1.13;;
53391;SDS011;41667;51.922;8.850;2023-06-14T08:17:53;1.85;;;0.88;;
53391;SDS011;41667;51.922;8.850;2023-06-14T08:20:18;1.83;;;1.20;;
53391;SDS011;41667;51.922;8.850;2023-06-14T08:22:43;3.08;;;1.02;;
53391;SDS011;41667;51.922;8.850;2023-06-14T08:25:11;2.28;;;1.17;;
53391;SDS011;41667;51.922;8.850;2023-06-14T08:27:37;1.38;;;1.00;;
53391;SDS011;41667;51.922;8.850;2023-06-14T08:30:02;3.50;;;1.20;;
53391;SDS011;41667;51.922;8.850;2023-06-14T08:32:28;1.52;;;1.42;;
53391;SDS011;41667;51.922;8.850;2023-06-14T08:34:53;2.80;;;1.13;;
53391;SDS011;41667;51.922;8.850;2023-06-14T08:37:18;2.03;;;1.25;;
53391;SDS011;41667;51.922;8.850;2023-06-14T08:39:43;1.40;;;1.30;;
53391;SDS011;41667;51.922;8.850;2023-06-14T08:42:09;1.00;;;1.00;;
53391;SDS011;41667;51.922;8.850;2023-06-14T08:44:35;1.83;;;1.60;;
53391;SDS011;41667;51.922;8.850;2023-06-14T08:47:00;1.20;;;1.10;;
53391;SDS011;41667;51.922;8.850;2023-06-14T08:49:25;1.23;;;1.17;;
53391;SDS011;41667;51.922;8.850;2023-06-14T08:51:53;2.60;;;1.50;;
53391;SDS011;41667;51.922;8.850;2023-06-14T08:54:22;5.47;;;1.92;;
53391;SDS011;41667;51.922;8.850;2023-06-14T08:56:49;2.50;;;1.45;;
53391;SDS011;41667;51.922;8.850;2023-06-14T08:59:16;3.25;;;1.40;;
53391;SDS011;41667;51.922;8.850;2023-06-14T09:01:43;1.58;;;1.48;;
53391;SDS011;41667;51.922;8.850;2023-06-14T09:04:08;3.42;;;1.52;;
53391;SDS011;41667;51.922;8.850;2023-06-14T09:06:33;1.10;;;1.10;;
53391;SDS011;41667;51.922;8.850;2023-06-14T09:08:58;1.75;;;1.42;;
53391;SDS011;41667;51.922;8.850;2023-06-14T09:11:24;1.38;;;1.27;;
53391;SDS011;41667;51.922;8.850;2023-06-14T09:13:50;1.50;;;1.40;;
53391;SDS011;41667;51.922;8.850;2023-06-14T09:16:16;1.20;;;1.10;;
53391;SDS011;41667;51.922;8.850;2023-06-14T09:18:42;1.67;;;1.58;;
53391;SDS011;41667;51.922;8.850;2023-06-14T09:21:13;1.37;;;1.27;;
53391;SDS011;41667;51.922;8.850;2023-06-14T09:23:39;1.50;;;1.40;;
53391;SDS011;41667;51.922;8.850;2023-06-14T09:28:33;2.45;;;1.65;;
53391;SDS011;41667;51.922;8.850;2023-06-14T09:30:58;1.40;;;1.30;;
53391;SDS011;41667;51.922;8.850;2023-06-14T09:33:23;2.22;;;1.58;;
53391;SDS011;41667;51.922;8.850;2023-06-14T09:35:56;3.53;;;1.60;;
53391;SDS011;41667;51.922;8.850;2023-06-14T09:38:21;1.52;;;1.42;;
53391;SDS011;41667;51.922;8.850;2023-06-14T09:40:46;2.33;;;1.80;;
53391;SDS011;41667;51.922;8.850;2023-06-14T09:43:11;1.65;;;1.55;;
53391;SDS011;41667;51.922;8.850;2023-06-14T09:45:37;1.63;;;1.40;;
53391;SDS011;41667;51.922;8.850;2023-06-14T09:48:04;1.33;;;1.20;;
53391;SDS011;41667;51.922;8.850;2023-06-14T09:50:31;2.00;;;1.60;;
53391;SDS011;41667;51.922;8.850;2023-06-14T09:52:57;1.53;;;1.33;;
53391;SDS011;41667;51.922;8.850;2023-06-14T09:55:24;6.07;;;1.60;;
53391;SDS011;41667;51.922;8.850;2023-06-14T09:57:51;3.03;;;1.45;;
53391;SDS011;41667;51.922;8.850;2023-06-14T10:00:16;1.73;;;1.63;;
53391;SDS011;41667;51.922;8.850;2023-06-14T10:02:43;3.28;;;1.45;;
53391;SDS011;41667;51.922;8.850;2023-06-14T10:05:12;2.85;;;1.85;;
53391;SDS011;41667;51.922;8.850;2023-06-14T10:07:41;4.07;;;1.58;;
53391;SDS011;41667;51.922;8.850;2023-06-14T10:10:07;1.50;;;1.40;;
53391;SDS011;41667;51.922;8.850;2023-06-14T10:12:33;1.60;;;1.50;;
53391;SDS011;41667;51.922;8.850;2023-06-14T10:14:58;1.42;;;1.33;;
53391;SDS011;41667;51.922;8.850;2023-06-14T10:17:26;4.07;;;1.50;;
53391;SDS011;41667;51.922;8.850;2023-06-14T10:19:56;1.70;;;1.60;;
53391;SDS011;41667;51.922;8.850;2023-06-14T10:22:25;1.52;;;1.42;;
53391;SDS011;41667;51.922;8.850;2023-06-14T10:24:52;1.25;;;1.15;;
53391;SDS011;41667;51.922;8.850;2023-06-14T10:27:17;1.47;;;1.37;;
53391;SDS011;41667;51.922;8.850;2023-06-14T10:32:20;1.55;;;1.33;;
53391;SDS011;41667;51.922;8.850;2023-06-14T10:34:45;1.40;;;1.30;;
53391;SDS011;41667;51.922;8.850;2023-06-14T10:37:12;1.73;;;1.63;;
53391;SDS011;41667;51.922;8.850;2023-06-14T10:39:41;3.22;;;1.30;;
53391;SDS011;41667;51.922;8.850;2023-06-14T10:42:06;1.20;;;1.15;;
53391;SDS011;41667;51.922;8.850;2023-06-14T10:44:32;1.65;;;0.98;;
53391;SDS011;41667;51.922;8.850;2023-06-14T10:46:58;1.88;;;1.30;;
53391;SDS011;41667;51.922;8.850;2023-06-14T10:49:58;2.15;;;1.30;;
53391;SDS011;41667;51.922;8.850;2023-06-14T10:52:16;2.30;;;1.10;;
53391;SDS011;41667;51.922;8.850;2023-06-14T10:55:00;1.20;;;1.17;;
53391;SDS011;41667;51.922;8.850;2023-06-14T10:57:26;1.95;;;1.40;;
53391;SDS011;41667;51.922;8.850;2023-06-14T10:59:52;6.30;;;1.63;;
53391;SDS011;41667;51.922;8.850;2023-06-14T11:12:48;0.90;;;0.90;;
53391;SDS011;41667;51.922;8.850;2023-06-14T11:15:13;1.02;;;0.93;;
53391;SDS011;41667;51.922;8.850;2023-06-14T11:17:38;4.00;;;1.45;;
53391;SDS011;41667;51.922;8.850;2023-06-14T11:20:08;1.10;;;1.10;;
53391;SDS011;41667;51.922;8.850;2023-06-14T11:22:38;1.42;;;1.33;;
53391;SDS011;41667;51.922;8.850;2023-06-14T11:25:03;2.03;;;1.17;;
53391;SDS011;41667;51.922;8.850;2023-06-14T11:27:30;1.10;;;1.10;;
53391;SDS011;41667;51.922;8.850;2023-06-14T11:29:57;1.15;;;1.00;;
53391;SDS011;41667;51.922;8.850;2023-06-14T11:32:23;1.23;;;1.13;;
53391;SDS011;41667;51.922;8.850;2023-06-14T11:34:49;1.85;;;1.30;;
53391;SDS011;41667;51.922;8.850;2023-06-14T11:37:15;0.98;;;0.98;;
53391;SDS011;41667;51.922;8.850;2023-06-14T11:39:43;0.80;;;0.80;;
53391;SDS011;41667;51.922;8.850;2023-06-14T11:42:08;1.40;;;1.27;;
53391;SDS011;41667;51.922;8.850;2023-06-14T11:44:33;1.60;;;0.90;;
53391;SDS011;41667;51.922;8.850;2023-06-14T11:46:58;1.27;;;1.20;;
53391;SDS011;41667;51.922;8.850;2023-06-14T11:49:23;3.73;;;1.30;;
53391;SDS011;41667;51.922;8.850;2023-06-14T11:51:49;1.27;;;1.10;;
53391;SDS011;41667;51.922;8.850;2023-06-14T11:54:14;1.65;;;1.15;;
53391;SDS011;41667;51.922;8.850;2023-06-14T11:56:40;2.70;;;1.88;;
53391;SDS011;41667;51.922;8.850;2023-06-14T11:59:05;1.08;;;0.98;;
53391;SDS011;41667;51.922;8.850;2023-06-14T12:01:30;1.23;;;1.10;;
53391;SDS011;41667;51.922;8.850;2023-06-14T12:03:56;2.78;;;1.30;;
53391;SDS011;41667;51.922;8.850;2023-06-14T12:06:28;0.90;;;0.90;;
53391;SDS011;41667;51.922;8.850;2023-06-14T12:08:55;1.02;;;1.02;;
53391;SDS011;41667;51.922;8.850;2023-06-14T12:11:20;1.58;;;1.40;;
53391;SDS011;41667;51.922;8.850;2023-06-14T12:13:45;1.03;;;1.03;;
53391;SDS011;41667;51.922;8.850;2023-06-14T12:16:11;1.42;;;1.10;;
53391;SDS011;41667;51.922;8.850;2023-06-14T12:18:37;1.58;;;1.30;;
53391;SDS011;41667;51.922;8.850;2023-06-14T12:21:05;1.63;;;1.27;;
53391;SDS011;41667;51.922;8.850;2023-06-14T12:23:47;3.08;;;1.13;;
53391;SDS011;41667;51.922;8.850;2023-06-14T12:26:13;1.40;;;1.30;;
53391;SDS011;41667;51.922;8.850;2023-06-14T12:28:39;0.80;;;0.80;;
53391;SDS011;41667;51.922;8.850;2023-06-14T12:31:04;1.00;;;1.00;;
53391;SDS011;41667;51.922;8.850;2023-06-14T12:33:31;1.30;;;1.20;;
53391;SDS011;41667;51.922;8.850;2023-06-14T12:35:56;1.65;;;1.10;;
53391;SDS011;41667;51.922;8.850;2023-06-14T12:38:23;1.60;;;1.10;;
53391;SDS011;41667;51.922;8.850;2023-06-14T12:40:48;1.17;;;0.82;;
53391;SDS011;41667;51.922;8.850;2023-06-14T12:43:13;2.63;;;1.00;;
53391;SDS011;41667;51.922;8.850;2023-06-14T12:45:39;2.20;;;1.00;;
53391;SDS011;41667;51.922;8.850;2023-06-14T12:48:04;2.08;;;1.20;;
53391;SDS011;41667;51.922;8.850;2023-06-14T12:50:29;1.43;;;1.10;;
53391;SDS011;41667;51.922;8.850;2023-06-14T12:52:55;1.20;;;1.13;;
53391;SDS011;41667;51.922;8.850;2023-06-14T12:55:20;0.80;;;0.80;;
53391;SDS011;41667;51.922;8.850;2023-06-14T12:57:45;1.10;;;0.98;;
53391;SDS011;41667;51.922;8.850;2023-06-14T13:00:10;0.80;;;0.80;;
53391;SDS011;41667;51.922;8.850;2023-06-14T13:02:37;6.63;;;1.23;;
53391;SDS011;41667;51.922;8.850;2023-06-14T13:05:03;0.93;;;0.88;;
53391;SDS011;41667;51.922;8.850;2023-06-14T13:07:29;0.80;;;0.80;;
53391;SDS011;41667;51.922;8.850;2023-06-14T13:09:54;1.45;;;1.00;;
53391;SDS011;41667;51.922;8.850;2023-06-14T13:12:19;0.95;;;0.95;;
53391;SDS011;41667;51.922;8.850;2023-06-14T13:14:44;1.08;;;1.08;;
53391;SDS011;41667;51.922;8.850;2023-06-14T13:17:10;0.93;;;0.93;;
53391;SDS011;41667;51.922;8.850;2023-06-14T13:19:35;3.17;;;0.93;;
53391;SDS011;41667;51.922;8.850;2023-06-14T13:22:01;1.10;;;1.00;;
53391;SDS011;41667;51.922;8.850;2023-06-14T13:24:26;1.67;;;0.98;;
53391;SDS011;41667;51.922;8.850;2023-06-14T13:26:51;0.90;;;0.90;;
53391;SDS011;41667;51.922;8.850;2023-06-14T13:29:16;1.63;;;1.52;;
53391;SDS011;41667;51.922;8.850;2023-06-14T13:31:42;4.63;;;1.30;;
53391;SDS011;41667;51.922;8.850;2023-06-14T13:34:07;1.88;;;0.90;;
53391;SDS011;41667;51.922;8.850;2023-06-14T13:36:32;1.08;;;1.08;;
53391;SDS011;41667;51.922;8.850;2023-06-14T13:38:57;0.93;;;0.93;;
53391;SDS011;41667;51.922;8.850;2023-06-14T13:41:23;1.27;;;1.20;;
53391;SDS011;41667;51.922;8.850;2023-06-14T13:43:48;1.98;;;1.05;;
53391;SDS011;41667;51.922;8.850;2023-06-14T13:46:14;2.53;;;1.10;;
53391;SDS011;41667;51.922;8.850;2023-06-14T13:48:39;1.88;;;1.35;;
53391;SDS011;41667;51.922;8.850;2023-06-14T13:51:04;1.13;;;1.13;;
53391;SDS011;41667;51.922;8.850;2023-06-14T13:53:29;2.28;;;1.10;;
53391;SDS011;41667;51.922;8.850;2023-06-14T13:55:54;1.40;;;1.30;;
53391;SDS011;41667;51.922;8.850;2023-06-14T13:58:19;1.53;;;1.30;;
53391;SDS011;41667;51.922;8.850;2023-06-14T14:00:45;1.30;;;1.13;;
53391;SDS011;41667;51.922;8.850;2023-06-14T14:03:10;2.00;;;0.90;;
53391;SDS011;41667;51.922;8.850;2023-06-14T14:05:36;1.58;;;1.48;;
53391;SDS011;41667;51.922;8.850;2023-06-14T14:08:01;1.60;;;1.13;;
53391;SDS011;41667;51.922;8.850;2023-06-14T14:10:26;1.65;;;0.95;;
53391;SDS011;41667;51.922;8.850;2023-06-14T14:12:52;1.10;;;1.10;;
53391;SDS011;41667;51.922;8.850;2023-06-14T14:15:18;3.97;;;1.10;;
53391;SDS011;41667;51.922;8.850;2023-06-14T14:17:43;1.30;;;1.20;;
53391;SDS011;41667;51.922;8.850;2023-06-14T14:20:08;3.13;;;1.42;;
53391;SDS011;41667;51.922;8.850;2023-06-14T14:22:33;2.63;;;1.30;;
53391;SDS011;41667;51.922;8.850;2023-06-14T14:24:58;1.42;;;1.33;;
53391;SDS011;41667;51.922;8.850;2023-06-14T14:27:24;1.52;;;1.30;;
53391;SDS011;41667;51.922;8.850;2023-06-14T14:29:49;3.30;;;1.42;;
53391;SDS011;41667;51.922;8.850;2023-06-14T14:32:14;1.85;;;1.25;;
53391;SDS011;41667;51.922;8.850;2023-06-14T14:34:40;2.10;;;1.50;;
53391;SDS011;41667;51.922;8.850;2023-06-14T14:37:05;5.68;;;1.33;;
53391;SDS011;41667;51.922;8.850;2023-06-14T14:39:30;1.40;;;1.30;;
53391;SDS011;41667;51.922;8.850;2023-06-14T14:41:55;5.55;;;1.45;;
53391;SDS011;41667;51.922;8.850;2023-06-14T14:44:21;1.27;;;1.20;;
53391;SDS011;41667;51.922;8.850;2023-06-14T14:46:46;4.28;;;1.67;;
53391;SDS011;41667;51.922;8.850;2023-06-14T14:49:11;2.58;;;1.23;;
53391;SDS011;41667;51.922;8.850;2023-06-14T14:51:36;2.20;;;1.00;;
53391;SDS011;41667;51.922;8.850;2023-06-14T14:54:03;1.20;;;1.20;;
53391;SDS011;41667;51.922;8.850;2023-06-14T14:56:28;2.28;;;1.35;;